sensor_id;sensor_type;location;lat;lon;timestamp;pressure;altitude;pressure_sealevel;temperature;humidity
13434;BME280;6789;47.678;9.158;2023-03-25T00:03:21;96457.00;;;8.95;98.64
13434;BME280;6789;47.678;9.158;2023-03-25T00:08:14;96436.72;;;8.91;94.37
13434;BME280;6789;47.678;9.158;2023-03-25T00:13:06;96399.63;;;8.82;94.08
13434;BME280;6789;47.678;9.158;2023-03-25T00:18:02;96399.63;;;8.82;94.49
13434;BME280;6789;47.678;9.158;2023-03-25T00:22:54;96385.97;;;8.80;92.89
13434;BME280;6789;47.678;9.158;2023-03-25T00:27:47;96376.63;;;8.73;93.28
13434;BME280;6789;47.678;9.158;2023-03-25T00:32:39;96377.28;;;8.68;93.71
13434;BME280;6789;47.678;9.158;2023-03-25T00:37:31;96374.09;;;8.66;93.21
13434;BME280;6789;47.678;9.158;2023-03-25T00:42:22;96373.59;;;8.58;94.71
13434;BME280;6789;47.678;9.158;2023-03-25T00:47:16;96382.69;;;8.55;94.25
13434;BME280;6789;47.678;9.158;2023-03-25T00:52:09;96406.47;;;8.65;92.42
13434;BME280;6789;47.678;9.158;2023-03-25T00:57:01;96421.06;;;8.73;96.31
13434;BME280;6789;47.678;9.158;2023-03-25T01:01:53;96408.88;;;8.67;100.00
13434;BME280;6789;47.678;9.158;2023-03-25T01:06:46;96413.91;;;8.51;100.00
13434;BME280;6789;47.678;9.158;2023-03-25T01:11:43;96411.78;;;8.41;100.00
13434;BME280;6789;47.678;9.158;2023-03-25T01:16:36;96394.44;;;8.29;100.00
13434;BME280;6789;47.678;9.158;2023-03-25T01:21:28;96408.47;;;8.16;100.00
13434;BME280;6789;47.678;9.158;2023-03-25T01:26:20;96385.56;;;8.12;100.00
13434;BME280;6789;47.678;9.158;2023-03-25T01:31:14;96386.78;;;8.09;100.00
13434;BME280;6789;47.678;9.158;2023-03-25T01:36:07;96388.44;;;8.04;100.00
13434;BME280;6789;47.678;9.158;2023-03-25T01:41:04;96366.84;;;7.97;100.00
13434;BME280;6789;47.678;9.158;2023-03-25T01:45:57;96383.81;;;7.88;100.00
13434;BME280;6789;47.678;9.158;2023-03-25T01:50:55;96375.25;;;7.81;100.00
13434;BME280;6789;47.678;9.158;2023-03-25T01:55:50;96368.69;;;7.72;100.00
13434;BME280;6789;47.678;9.158;2023-03-25T02:00:46;96375.13;;;7.70;100.00
13434;BME280;6789;47.678;9.158;2023-03-25T02:10:32;96387.91;;;7.78;100.00
13434;BME280;6789;47.678;9.158;2023-03-25T02:15:25;96373.72;;;7.74;100.00
13434;BME280;6789;47.678;9.158;2023-03-25T02:26:45;96373.06;;;7.78;99.83
13434;BME280;6789;47.678;9.158;2023-03-25T02:43:04;96365.94;;;7.85;100.00
13434;BME280;6789;47.678;9.158;2023-03-25T02:48:10;96382.56;;;7.90;100.00
13434;BME280;6789;47.678;9.158;2023-03-25T02:53:12;96376.56;;;7.90;100.00
13434;BME280;6789;47.678;9.158;2023-03-25T02:58:10;96370.91;;;7.93;99.27
13434;BME280;6789;47.678;9.158;2023-03-25T03:03:06;96374.97;;;7.89;99.89
13434;BME280;6789;47.678;9.158;2023-03-25T03:08:29;96385.56;;;7.94;98.63
13434;BME280;6789;47.678;9.158;2023-03-25T03:19:00;96383.19;;;8.10;98.33
13434;BME280;6789;47.678;9.158;2023-03-25T03:24:28;96379.50;;;8.18;97.97
13434;BME280;6789;47.678;9.158;2023-03-25T03:29:47;96405.75;;;8.23;99.85
13434;BME280;6789;47.678;9.158;2023-03-25T03:34:50;96432.88;;;8.22;100.00
13434;BME280;6789;47.678;9.158;2023-03-25T03:39:46;96507.25;;;7.95;100.00
13434;BME280;6789;47.678;9.158;2023-03-25T03:44:44;96475.13;;;7.08;100.00
13434;BME280;6789;47.678;9.158;2023-03-25T03:49:42;96504.91;;;6.82;100.00
13434;BME280;6789;47.678;9.158;2023-03-25T03:54:54;96513.28;;;6.90;100.00
13434;BME280;6789;47.678;9.158;2023-03-25T04:04:58;96516.50;;;6.86;100.00
13434;BME280;6789;47.678;9.158;2023-03-25T04:10:15;96511.50;;;6.84;100.00
13434;BME280;6789;47.678;9.158;2023-03-25T04:15:09;96499.13;;;6.73;100.00
13434;BME280;6789;47.678;9.158;2023-03-25T04:20:01;96491.91;;;6.69;100.00
13434;BME280;6789;47.678;9.158;2023-03-25T04:24:59;96507.75;;;6.61;100.00
13434;BME280;6789;47.678;9.158;2023-03-25T04:29:51;96513.78;;;6.55;100.00
13434;BME280;6789;47.678;9.158;2023-03-25T04:34:43;96461.53;;;6.50;100.00
13434;BME280;6789;47.678;9.158;2023-03-25T04:39:34;96524.19;;;6.68;100.00
13434;BME280;6789;47.678;9.158;2023-03-25T04:44:27;96512.78;;;6.56;100.00
13434;BME280;6789;47.678;9.158;2023-03-25T04:49:21;96499.56;;;6.57;100.00
13434;BME280;6789;47.678;9.158;2023-03-25T04:54:14;96503.41;;;6.42;100.00
13434;BME280;6789;47.678;9.158;2023-03-25T04:59:08;96514.84;;;6.41;100.00
13434;BME280;6789;47.678;9.158;2023-03-25T05:04:17;96517.84;;;6.38;100.00
13434;BME280;6789;47.678;9.158;2023-03-25T05:09:15;96521.88;;;6.34;100.00
13434;BME280;6789;47.678;9.158;2023-03-25T05:14:09;96533.09;;;6.22;100.00
13434;BME280;6789;47.678;9.158;2023-03-25T05:19:01;96527.28;;;6.26;100.00
13434;BME280;6789;47.678;9.158;2023-03-25T05:23:54;96518.88;;;6.31;100.00
13434;BME280;6789;47.678;9.158;2023-03-25T05:28:48;96523.84;;;6.45;100.00
13434;BME280;6789;47.678;9.158;2023-03-25T05:33:41;96526.63;;;6.50;100.00
13434;BME280;6789;47.678;9.158;2023-03-25T05:38:33;96526.44;;;6.45;100.00
13434;BME280;6789;47.678;9.158;2023-03-25T05:43:28;96533.25;;;6.39;100.00
13434;BME280;6789;47.678;9.158;2023-03-25T05:48:26;96522.06;;;6.39;100.00
13434;BME280;6789;47.678;9.158;2023-03-25T05:53:17;96522.44;;;6.42;100.00
13434;BME280;6789;47.678;9.158;2023-03-25T05:58:11;96532.66;;;6.44;100.00
13434;BME280;6789;47.678;9.158;2023-03-25T06:03:06;96549.84;;;6.64;100.00
13434;BME280;6789;47.678;9.158;2023-03-25T06:07:59;96549.03;;;6.70;100.00
13434;BME280;6789;47.678;9.158;2023-03-25T06:12:52;96563.03;;;6.76;100.00
13434;BME280;6789;47.678;9.158;2023-03-25T06:17:44;96563.69;;;6.65;100.00
13434;BME280;6789;47.678;9.158;2023-03-25T06:22:43;96559.66;;;6.69;100.00
13434;BME280;6789;47.678;9.158;2023-03-25T06:27:36;96552.97;;;6.86;100.00
13434;BME280;6789;47.678;9.158;2023-03-25T06:32:30;96545.50;;;7.08;100.00
13434;BME280;6789;47.678;9.158;2023-03-25T06:37:22;96544.63;;;7.27;100.00
13434;BME280;6789;47.678;9.158;2023-03-25T06:42:16;96547.56;;;7.37;100.00
13434;BME280;6789;47.678;9.158;2023-03-25T06:47:08;96551.72;;;7.51;100.00
13434;BME280;6789;47.678;9.158;2023-03-25T06:51:59;96545.88;;;7.49;100.00
13434;BME280;6789;47.678;9.158;2023-03-25T06:56:51;96526.84;;;7.49;100.00
13434;BME280;6789;47.678;9.158;2023-03-25T07:01:43;96532.38;;;7.65;100.00
13434;BME280;6789;47.678;9.158;2023-03-25T07:06:35;96538.91;;;7.74;100.00
13434;BME280;6789;47.678;9.158;2023-03-25T07:11:29;96535.91;;;7.77;100.00
13434;BME280;6789;47.678;9.158;2023-03-25T07:16:23;96541.88;;;7.84;100.00
13434;BME280;6789;47.678;9.158;2023-03-25T07:21:15;96542.03;;;8.13;100.00
13434;BME280;6789;47.678;9.158;2023-03-25T07:26:07;96554.59;;;8.29;99.00
13434;BME280;6789;47.678;9.158;2023-03-25T07:30:59;96545.56;;;8.50;98.64
13434;BME280;6789;47.678;9.158;2023-03-25T07:35:51;96537.09;;;9.08;98.19
13434;BME280;6789;47.678;9.158;2023-03-25T07:40:43;96533.09;;;9.52;95.28
13434;BME280;6789;47.678;9.158;2023-03-25T07:45:41;96524.31;;;9.88;92.18
13434;BME280;6789;47.678;9.158;2023-03-25T07:50:36;96515.03;;;10.14;89.85
13434;BME280;6789;47.678;9.158;2023-03-25T07:55:28;96535.44;;;10.24;88.64
13434;BME280;6789;47.678;9.158;2023-03-25T08:00:20;96526.78;;;10.00;88.08
13434;BME280;6789;47.678;9.158;2023-03-25T08:05:12;96532.84;;;10.12;87.39
13434;BME280;6789;47.678;9.158;2023-03-25T08:10:07;96528.25;;;10.08;87.69
13434;BME280;6789;47.678;9.158;2023-03-25T08:14:59;96532.81;;;10.01;88.48
13434;BME280;6789;47.678;9.158;2023-03-25T08:19:50;96530.47;;;9.82;88.58
13434;BME280;6789;47.678;9.158;2023-03-25T08:24:42;96520.09;;;9.87;88.69
13434;BME280;6789;47.678;9.158;2023-03-25T08:29:35;96535.78;;;9.75;88.21
13434;BME280;6789;47.678;9.158;2023-03-25T08:34:29;96522.66;;;9.64;88.67
13434;BME280;6789;47.678;9.158;2023-03-25T08:39:25;96533.28;;;9.80;88.82
13434;BME280;6789;47.678;9.158;2023-03-25T08:44:20;96544.34;;;9.82;89.73
13434;BME280;6789;47.678;9.158;2023-03-25T08:49:12;96549.75;;;9.40;91.51
13434;BME280;6789;47.678;9.158;2023-03-25T08:54:03;96554.66;;;9.19;96.72
13434;BME280;6789;47.678;9.158;2023-03-25T08:58:55;96554.56;;;8.71;99.10
13434;BME280;6789;47.678;9.158;2023-03-25T09:03:48;96555.13;;;8.38;100.00
13434;BME280;6789;47.678;9.158;2023-03-25T09:08:40;96543.28;;;8.35;100.00
13434;BME280;6789;47.678;9.158;2023-03-25T09:13:40;96547.41;;;8.67;100.00
13434;BME280;6789;47.678;9.158;2023-03-25T09:18:32;96546.41;;;8.86;100.00
13434;BME280;6789;47.678;9.158;2023-03-25T09:23:26;96544.00;;;9.20;100.00
13434;BME280;6789;47.678;9.158;2023-03-25T09:28:18;96538.38;;;9.34;100.00
13434;BME280;6789;47.678;9.158;2023-03-25T09:33:09;96534.88;;;9.40;100.00
13434;BME280;6789;47.678;9.158;2023-03-25T09:38:02;96543.84;;;9.33;100.00
13434;BME280;6789;47.678;9.158;2023-03-25T09:48:43;96512.88;;;9.59;100.00
13434;BME280;6789;47.678;9.158;2023-03-25T09:53:45;96520.41;;;9.38;100.00
13434;BME280;6789;47.678;9.158;2023-03-25T09:58:45;96522.25;;;9.49;100.00
13434;BME280;6789;47.678;9.158;2023-03-25T10:03:58;96515.72;;;9.40;100.00
13434;BME280;6789;47.678;9.158;2023-03-25T10:09:00;96516.59;;;9.23;100.00
13434;BME280;6789;47.678;9.158;2023-03-25T10:14:38;96517.47;;;9.17;100.00
13434;BME280;6789;47.678;9.158;2023-03-25T10:25:03;96496.03;;;8.90;100.00
13434;BME280;6789;47.678;9.158;2023-03-25T10:30:03;96504.13;;;8.89;100.00
13434;BME280;6789;47.678;9.158;2023-03-25T10:35:22;96511.47;;;8.62;100.00
13434;BME280;6789;47.678;9.158;2023-03-25T10:40:30;96492.28;;;8.51;100.00
13434;BME280;6789;47.678;9.158;2023-03-25T10:45:25;96528.03;;;8.08;100.00
13434;BME280;6789;47.678;9.158;2023-03-25T10:50:20;96535.91;;;7.77;100.00
13434;BME280;6789;47.678;9.158;2023-03-25T10:55:30;96532.38;;;7.59;100.00
13434;BME280;6789;47.678;9.158;2023-03-25T11:00:39;96530.47;;;7.41;100.00
13434;BME280;6789;47.678;9.158;2023-03-25T11:06:32;96538.13;;;7.43;100.00
13434;BME280;6789;47.678;9.158;2023-03-25T11:12:08;96532.16;;;7.29;100.00
13434;BME280;6789;47.678;9.158;2023-03-25T11:17:05;96517.44;;;7.41;100.00
13434;BME280;6789;47.678;9.158;2023-03-25T11:22:14;96533.38;;;7.64;100.00
13434;BME280;6789;47.678;9.158;2023-03-25T11:27:09;96534.88;;;7.78;100.00
13434;BME280;6789;47.678;9.158;2023-03-25T11:32:14;96525.28;;;8.27;100.00
13434;BME280;6789;47.678;9.158;2023-03-25T11:37:19;96522.66;;;8.69;100.00
13434;BME280;6789;47.678;9.158;2023-03-25T11:47:10;96527.13;;;8.98;100.00
13434;BME280;6789;47.678;9.158;2023-03-25T11:52:07;96543.78;;;9.04;100.00
13434;BME280;6789;47.678;9.158;2023-03-25T11:57:05;96531.78;;;9.14;100.00
13434;BME280;6789;47.678;9.158;2023-03-25T12:02:20;96532.47;;;9.21;100.00
13434;BME280;6789;47.678;9.158;2023-03-25T12:07:17;96525.66;;;9.38;100.00
13434;BME280;6789;47.678;9.158;2023-03-25T12:12:32;96519.84;;;9.77;100.00
13434;BME280;6789;47.678;9.158;2023-03-25T12:28:36;96504.03;;;10.47;97.73
13434;BME280;6789;47.678;9.158;2023-03-25T13:06:25;96466.47;;;12.62;86.76
13434;BME280;6789;47.678;9.158;2023-03-25T13:11:33;96464.81;;;12.56;85.03
13434;BME280;6789;47.678;9.158;2023-03-25T13:16:32;96463.06;;;12.62;84.55
13434;BME280;6789;47.678;9.158;2023-03-25T13:21:46;96452.72;;;12.77;83.82
13434;BME280;6789;47.678;9.158;2023-03-25T13:26:44;96455.84;;;12.74;81.50
13434;BME280;6789;47.678;9.158;2023-03-25T13:31:43;96442.59;;;12.69;80.79
13434;BME280;6789;47.678;9.158;2023-03-25T13:36:42;96445.22;;;12.69;80.81
13434;BME280;6789;47.678;9.158;2023-03-25T13:42:03;96464.25;;;12.38;80.90
13434;BME280;6789;47.678;9.158;2023-03-25T13:47:07;96446.44;;;12.40;80.73
13434;BME280;6789;47.678;9.158;2023-03-25T13:52:06;96447.63;;;12.49;80.16
13434;BME280;6789;47.678;9.158;2023-03-25T14:13:27;96441.91;;;12.19;76.67
13434;BME280;6789;47.678;9.158;2023-03-25T14:18:22;96440.81;;;12.15;76.08
13434;BME280;6789;47.678;9.158;2023-03-25T14:23:19;96447.56;;;12.27;74.87
13434;BME280;6789;47.678;9.158;2023-03-25T14:28:42;96446.69;;;12.22;73.34
13434;BME280;6789;47.678;9.158;2023-03-25T14:38:55;96459.16;;;12.48;70.11
13434;BME280;6789;47.678;9.158;2023-03-25T14:44:09;96447.06;;;12.47;69.78
13434;BME280;6789;47.678;9.158;2023-03-25T14:49:18;96441.75;;;12.25;66.49
13434;BME280;6789;47.678;9.158;2023-03-25T14:54:40;96441.75;;;12.09;69.91
13434;BME280;6789;47.678;9.158;2023-03-25T14:59:43;96457.47;;;11.88;71.78
13434;BME280;6789;47.678;9.158;2023-03-25T15:04:37;96467.63;;;11.68;74.54
13434;BME280;6789;47.678;9.158;2023-03-25T15:09:30;96469.75;;;11.54;72.07
13434;BME280;6789;47.678;9.158;2023-03-25T15:14:43;96487.13;;;11.55;77.25
13434;BME280;6789;47.678;9.158;2023-03-25T15:24:54;96496.91;;;10.70;88.99
13434;BME280;6789;47.678;9.158;2023-03-25T15:30:26;96484.53;;;10.54;93.65
13434;BME280;6789;47.678;9.158;2023-03-25T15:41:50;96468.47;;;10.90;88.08
13434;BME280;6789;47.678;9.158;2023-03-25T15:52:14;96470.91;;;10.80;90.05
13434;BME280;6789;47.678;9.158;2023-03-25T15:57:25;96465.44;;;10.70;90.17
13434;BME280;6789;47.678;9.158;2023-03-25T16:02:32;96460.91;;;10.66;90.32
13434;BME280;6789;47.678;9.158;2023-03-25T16:07:28;96472.97;;;10.66;89.87
13434;BME280;6789;47.678;9.158;2023-03-25T16:12:24;96500.81;;;10.56;91.07
13434;BME280;6789;47.678;9.158;2023-03-25T16:17:21;96522.00;;;10.20;85.36
13434;BME280;6789;47.678;9.158;2023-03-25T16:22:29;96532.38;;;9.75;86.54
13434;BME280;6789;47.678;9.158;2023-03-25T16:27:40;96518.69;;;9.73;89.97
13434;BME280;6789;47.678;9.158;2023-03-25T16:32:34;96518.25;;;9.76;89.24
13434;BME280;6789;47.678;9.158;2023-03-25T16:37:27;96519.16;;;9.81;88.71
13434;BME280;6789;47.678;9.158;2023-03-25T16:42:29;96523.03;;;9.79;90.33
13434;BME280;6789;47.678;9.158;2023-03-25T16:47:33;96495.78;;;9.97;92.64
13434;BME280;6789;47.678;9.158;2023-03-25T16:52:31;96501.78;;;9.87;91.54
13434;BME280;6789;47.678;9.158;2023-03-25T16:57:26;96509.59;;;9.75;91.39
13434;BME280;6789;47.678;9.158;2023-03-25T17:07:22;96535.06;;;9.57;94.64
13434;BME280;6789;47.678;9.158;2023-03-25T17:12:20;96533.22;;;9.57;95.93
13434;BME280;6789;47.678;9.158;2023-03-25T17:22:31;96535.38;;;9.31;96.70
13434;BME280;6789;47.678;9.158;2023-03-25T17:27:36;96524.97;;;9.13;98.01
13434;BME280;6789;47.678;9.158;2023-03-25T17:32:41;96518.41;;;9.04;97.89
13434;BME280;6789;47.678;9.158;2023-03-25T17:37:36;96515.94;;;9.09;97.52
13434;BME280;6789;47.678;9.158;2023-03-25T17:42:32;96517.50;;;8.99;97.78
13434;BME280;6789;47.678;9.158;2023-03-25T17:47:26;96505.34;;;8.86;98.69
13434;BME280;6789;47.678;9.158;2023-03-25T17:52:18;96502.59;;;8.81;99.62
13434;BME280;6789;47.678;9.158;2023-03-25T17:57:20;96497.78;;;8.78;99.81
13434;BME280;6789;47.678;9.158;2023-03-25T18:02:15;96504.34;;;8.69;99.71
13434;BME280;6789;47.678;9.158;2023-03-25T18:07:07;96499.53;;;8.66;99.54
13434;BME280;6789;47.678;9.158;2023-03-25T18:12:04;96510.00;;;8.66;99.74
13434;BME280;6789;47.678;9.158;2023-03-25T18:16:56;96506.09;;;8.57;100.00
13434;BME280;6789;47.678;9.158;2023-03-25T18:21:53;96524.06;;;8.65;100.00
13434;BME280;6789;47.678;9.158;2023-03-25T18:26:45;96526.69;;;8.65;100.00
13434;BME280;6789;47.678;9.158;2023-03-25T18:31:37;96530.91;;;8.49;99.94
13434;BME280;6789;47.678;9.158;2023-03-25T18:36:29;96526.16;;;8.39;100.00
13434;BME280;6789;47.678;9.158;2023-03-25T18:41:21;96539.06;;;8.34;100.00
13434;BME280;6789;47.678;9.158;2023-03-25T18:46:14;96530.44;;;8.34;100.00
13434;BME280;6789;47.678;9.158;2023-03-25T18:51:09;96527.34;;;8.19;100.00
13434;BME280;6789;47.678;9.158;2023-03-25T18:56:02;96530.19;;;8.11;100.00
13434;BME280;6789;47.678;9.158;2023-03-25T19:00:55;96525.81;;;8.05;100.00
13434;BME280;6789;47.678;9.158;2023-03-25T19:05:49;96523.91;;;7.94;100.00
13434;BME280;6789;47.678;9.158;2023-03-25T19:10:40;96522.22;;;8.06;100.00
13434;BME280;6789;47.678;9.158;2023-03-25T19:15:32;96518.81;;;8.05;100.00
13434;BME280;6789;47.678;9.158;2023-03-25T19:20:38;96515.22;;;8.00;100.00
13434;BME280;6789;47.678;9.158;2023-03-25T19:25:32;96517.44;;;8.03;100.00
13434;BME280;6789;47.678;9.158;2023-03-25T19:30:24;96526.97;;;8.15;100.00
13434;BME280;6789;47.678;9.158;2023-03-25T19:35:18;96529.38;;;8.17;100.00
13434;BME280;6789;47.678;9.158;2023-03-25T19:40:10;96527.78;;;8.16;98.58
13434;BME280;6789;47.678;9.158;2023-03-25T19:45:06;96507.69;;;8.16;98.62
13434;BME280;6789;47.678;9.158;2023-03-25T19:49:59;96514.13;;;8.14;99.17
13434;BME280;6789;47.678;9.158;2023-03-25T19:54:52;96522.13;;;8.19;98.99
13434;BME280;6789;47.678;9.158;2023-03-25T19:59:44;96518.06;;;8.23;97.98
13434;BME280;6789;47.678;9.158;2023-03-25T20:04:36;96534.03;;;8.08;97.21
13434;BME280;6789;47.678;9.158;2023-03-25T20:09:29;96526.75;;;7.92;98.55
13434;BME280;6789;47.678;9.158;2023-03-25T20:14:22;96527.00;;;7.84;98.92
13434;BME280;6789;47.678;9.158;2023-03-25T20:19:28;96526.19;;;8.15;96.15
13434;BME280;6789;47.678;9.158;2023-03-25T20:24:20;96518.81;;;8.30;94.61
13434;BME280;6789;47.678;9.158;2023-03-25T20:29:13;96514.19;;;8.32;95.29
13434;BME280;6789;47.678;9.158;2023-03-25T20:34:08;96499.97;;;8.28;94.51
13434;BME280;6789;47.678;9.158;2023-03-25T20:39:00;96485.44;;;8.32;95.22
13434;BME280;6789;47.678;9.158;2023-03-25T20:43:56;96482.97;;;8.37;94.01
13434;BME280;6789;47.678;9.158;2023-03-25T20:48:48;96482.19;;;8.12;95.93
13434;BME280;6789;47.678;9.158;2023-03-25T20:53:40;96487.00;;;7.90;97.82
13434;BME280;6789;47.678;9.158;2023-03-25T20:58:32;96487.53;;;7.75;97.92
13434;BME280;6789;47.678;9.158;2023-03-25T21:03:26;96500.44;;;7.63;98.50
13434;BME280;6789;47.678;9.158;2023-03-25T21:08:18;96501.47;;;7.62;99.14
13434;BME280;6789;47.678;9.158;2023-03-25T21:13:10;96505.91;;;7.86;97.58
13434;BME280;6789;47.678;9.158;2023-03-25T21:18:02;96508.38;;;8.05;96.63
13434;BME280;6789;47.678;9.158;2023-03-25T21:22:55;96502.59;;;7.97;95.95
13434;BME280;6789;47.678;9.158;2023-03-25T21:27:47;96505.19;;;7.97;96.00
13434;BME280;6789;47.678;9.158;2023-03-25T21:32:47;96499.88;;;7.85;96.22
13434;BME280;6789;47.678;9.158;2023-03-25T21:37:44;96485.31;;;7.78;98.35
13434;BME280;6789;47.678;9.158;2023-03-25T21:42:53;96475.88;;;7.77;97.30
13434;BME280;6789;47.678;9.158;2023-03-25T21:48:04;96483.69;;;7.77;97.63
13434;BME280;6789;47.678;9.158;2023-03-25T21:53:14;96482.31;;;7.75;97.54
13434;BME280;6789;47.678;9.158;2023-03-25T21:58:10;96471.88;;;7.75;97.54
13434;BME280;6789;47.678;9.158;2023-03-25T22:03:03;96478.72;;;7.69;97.13
13434;BME280;6789;47.678;9.158;2023-03-25T22:07:57;96482.41;;;7.62;98.74
13434;BME280;6789;47.678;9.158;2023-03-25T22:12:49;96486.81;;;7.61;98.03
13434;BME280;6789;47.678;9.158;2023-03-25T22:17:43;96475.63;;;7.54;97.85
13434;BME280;6789;47.678;9.158;2023-03-25T22:22:36;96480.03;;;7.54;97.52
13434;BME280;6789;47.678;9.158;2023-03-25T22:27:28;96476.81;;;7.58;98.17
13434;BME280;6789;47.678;9.158;2023-03-25T22:32:21;96480.38;;;7.64;97.10
13434;BME280;6789;47.678;9.158;2023-03-25T22:37:15;96481.59;;;7.61;97.60
13434;BME280;6789;47.678;9.158;2023-03-25T22:42:20;96487.81;;;7.60;98.06
13434;BME280;6789;47.678;9.158;2023-03-25T22:47:15;96493.88;;;7.54;97.71
13434;BME280;6789;47.678;9.158;2023-03-25T22:52:07;96492.13;;;7.48;97.80
13434;BME280;6789;47.678;9.158;2023-03-25T22:56:59;96486.31;;;7.46;98.26
13434;BME280;6789;47.678;9.158;2023-03-25T23:02:02;96481.28;;;7.45;97.41
13434;BME280;6789;47.678;9.158;2023-03-25T23:06:56;96473.91;;;7.42;99.55
13434;BME280;6789;47.678;9.158;2023-03-25T23:11:58;96476.06;;;7.45;99.13
13434;BME280;6789;47.678;9.158;2023-03-25T23:16:52;96476.84;;;7.52;99.20
13434;BME280;6789;47.678;9.158;2023-03-25T23:21:44;96472.00;;;7.55;98.62
13434;BME280;6789;47.678;9.158;2023-03-25T23:26:39;96466.94;;;7.60;98.56
13434;BME280;6789;47.678;9.158;2023-03-25T23:31:46;96463.38;;;7.55;98.99
13434;BME280;6789;47.678;9.158;2023-03-25T23:36:40;96462.00;;;7.52;98.24
13434;BME280;6789;47.678;9.158;2023-03-25T23:41:46;96456.34;;;7.55;98.30
13434;BME280;6789;47.678;9.158;2023-03-25T23:46:52;96450.38;;;7.48;99.18
13434;BME280;6789;47.678;9.158;2023-03-25T23:51:58;96440.75;;;7.49;99.80
13434;BME280;6789;47.678;9.158;2023-03-25T23:56:51;96432.66;;;7.57;98.62
